sensor_id;sensor_type;location;lat;lon;timestamp;pressure;altitude;pressure_sealevel;temperature;humidity
61682;BME280;47577;43.610;25.010;2023-07-28T00:01:08;100351.50;;;16.97;66.58
61682;BME280;47577;43.610;25.010;2023-07-28T00:03:33;100360.31;;;16.85;67.31
61682;BME280;47577;43.610;25.010;2023-07-28T00:05:59;100367.19;;;16.75;67.59
61682;BME280;47577;43.610;25.010;2023-07-28T00:08:24;100370.03;;;16.72;67.79
61682;BME280;47577;43.610;25.010;2023-07-28T00:10:50;100375.09;;;16.62;67.90
61682;BME280;47577;43.610;25.010;2023-07-28T00:13:16;100370.00;;;16.57;68.36
61682;BME280;47577;43.610;25.010;2023-07-28T00:15:41;100371.88;;;16.55;67.78
61682;BME280;47577;43.610;25.010;2023-07-28T00:18:07;100377.03;;;16.44;68.33
61682;BME280;47577;43.610;25.010;2023-07-28T00:20:33;100358.84;;;16.49;68.40
61682;BME280;47577;43.610;25.010;2023-07-28T00:22:58;100377.00;;;16.30;69.19
61682;BME280;47577;43.610;25.010;2023-07-28T00:25:24;100373.56;;;16.42;70.08
61682;BME280;47577;43.610;25.010;2023-07-28T00:27:50;100372.53;;;16.44;69.20
61682;BME280;47577;43.610;25.010;2023-07-28T00:30:18;100368.78;;;16.01;69.58
61682;BME280;47577;43.610;25.010;2023-07-28T00:32:44;100363.31;;;15.70;69.94
61682;BME280;47577;43.610;25.010;2023-07-28T00:35:09;100358.28;;;15.64;71.62
61682;BME280;47577;43.610;25.010;2023-07-28T00:37:35;100365.44;;;15.81;70.04
61682;BME280;47577;43.610;25.010;2023-07-28T00:40:01;100367.47;;;15.92;70.23
61682;BME280;47577;43.610;25.010;2023-07-28T00:42:26;100361.34;;;15.90;69.91
61682;BME280;47577;43.610;25.010;2023-07-28T00:44:52;100373.22;;;15.86;71.31
61682;BME280;47577;43.610;25.010;2023-07-28T00:47:17;100354.88;;;15.78;71.16
61682;BME280;47577;43.610;25.010;2023-07-28T00:49:43;100364.53;;;15.65;71.19
61682;BME280;47577;43.610;25.010;2023-07-28T00:52:09;100365.59;;;15.94;71.43
61682;BME280;47577;43.610;25.010;2023-07-28T00:54:35;100352.28;;;15.77;70.50
61682;BME280;47577;43.610;25.010;2023-07-28T00:57:01;100361.50;;;15.55;71.53
61682;BME280;47577;43.610;25.010;2023-07-28T00:59:27;100368.97;;;15.48;71.90
61682;BME280;47577;43.610;25.010;2023-07-28T01:01:53;100370.03;;;15.46;71.86
61682;BME280;47577;43.610;25.010;2023-07-28T01:04:19;100374.00;;;15.54;72.16
61682;BME280;47577;43.610;25.010;2023-07-28T01:06:55;100367.00;;;15.52;70.94
61682;BME280;47577;43.610;25.010;2023-07-28T01:09:25;100360.97;;;15.64;71.88
61682;BME280;47577;43.610;25.010;2023-07-28T01:11:56;100372.88;;;15.76;71.19
61682;BME280;47577;43.610;25.010;2023-07-28T01:14:21;100372.91;;;15.75;71.09
61682;BME280;47577;43.610;25.010;2023-07-28T01:16:47;100368.78;;;15.85;70.47
61682;BME280;47577;43.610;25.010;2023-07-28T01:19:16;100371.94;;;15.76;70.28
61682;BME280;47577;43.610;25.010;2023-07-28T01:21:48;100367.19;;;15.65;70.52
61682;BME280;47577;43.610;25.010;2023-07-28T01:24:55;100372.56;;;15.81;70.38
61682;BME280;47577;43.610;25.010;2023-07-28T01:27:23;100373.41;;;15.65;70.35
61682;BME280;47577;43.610;25.010;2023-07-28T01:29:49;100363.63;;;15.64;71.83
61682;BME280;47577;43.610;25.010;2023-07-28T01:32:14;100361.84;;;15.65;70.50
61682;BME280;47577;43.610;25.010;2023-07-28T01:34:40;100367.78;;;15.54;70.88
61682;BME280;47577;43.610;25.010;2023-07-28T01:37:06;100367.69;;;15.56;71.31
61682;BME280;47577;43.610;25.010;2023-07-28T01:39:32;100370.63;;;15.51;70.76
61682;BME280;47577;43.610;25.010;2023-07-28T01:41:58;100370.66;;;15.67;70.19
61682;BME280;47577;43.610;25.010;2023-07-28T01:44:24;100367.72;;;15.71;71.67
61682;BME280;47577;43.610;25.010;2023-07-28T01:46:49;100366.53;;;15.77;71.14
61682;BME280;47577;43.610;25.010;2023-07-28T01:49:15;100371.59;;;15.66;70.41
61682;BME280;47577;43.610;25.010;2023-07-28T01:51:41;100361.84;;;15.65;71.52
61682;BME280;47577;43.610;25.010;2023-07-28T01:54:06;100362.91;;;15.78;70.01
61682;BME280;47577;43.610;25.010;2023-07-28T01:56:32;100364.78;;;15.92;69.51
61682;BME280;47577;43.610;25.010;2023-07-28T01:58:57;100364.78;;;15.92;70.00
61682;BME280;47577;43.610;25.010;2023-07-28T02:01:23;100381.97;;;15.72;70.10
61682;BME280;47577;43.610;25.010;2023-07-28T02:03:49;100384.44;;;15.77;70.96
61682;BME280;47577;43.610;25.010;2023-07-28T02:06:14;100387.22;;;15.91;69.34
61682;BME280;47577;43.610;25.010;2023-07-28T02:08:40;100377.09;;;15.96;68.99
61682;BME280;47577;43.610;25.010;2023-07-28T02:11:05;100398.13;;;16.04;69.70
61682;BME280;47577;43.610;25.010;2023-07-28T02:13:31;100392.28;;;16.12;71.06
61682;BME280;47577;43.610;25.010;2023-07-28T02:15:57;100391.69;;;16.06;72.87
61682;BME280;47577;43.610;25.010;2023-07-28T02:18:22;100398.28;;;16.01;72.84
61682;BME280;47577;43.610;25.010;2023-07-28T02:20:48;100391.34;;;15.81;73.52
61682;BME280;47577;43.610;25.010;2023-07-28T02:23:14;100401.28;;;15.79;73.28
61682;BME280;47577;43.610;25.010;2023-07-28T02:25:40;100401.88;;;15.68;74.34
61682;BME280;47577;43.610;25.010;2023-07-28T02:28:07;100404.88;;;15.62;74.12
61682;BME280;47577;43.610;25.010;2023-07-28T02:30:32;100396.38;;;15.38;74.90
61682;BME280;47577;43.610;25.010;2023-07-28T02:32:58;100403.41;;;15.23;75.53
61682;BME280;47577;43.610;25.010;2023-07-28T02:35:23;100409.25;;;15.13;75.25
61682;BME280;47577;43.610;25.010;2023-07-28T02:37:49;100417.06;;;15.01;76.68
61682;BME280;47577;43.610;25.010;2023-07-28T02:40:15;100421.25;;;14.89;76.40
61682;BME280;47577;43.610;25.010;2023-07-28T02:42:40;100416.25;;;14.63;77.34
61682;BME280;47577;43.610;25.010;2023-07-28T02:45:06;100417.84;;;14.68;78.84
61682;BME280;47577;43.610;25.010;2023-07-28T02:47:32;100422.41;;;14.66;77.49
61682;BME280;47577;43.610;25.010;2023-07-28T02:49:58;100431.59;;;14.60;77.52
61682;BME280;47577;43.610;25.010;2023-07-28T02:52:23;100439.75;;;14.57;78.54
61682;BME280;47577;43.610;25.010;2023-07-28T02:54:49;100427.06;;;14.43;79.12
61682;BME280;47577;43.610;25.010;2023-07-28T02:57:15;100433.34;;;14.42;78.27
61682;BME280;47577;43.610;25.010;2023-07-28T02:59:41;100435.16;;;14.41;79.48
61682;BME280;47577;43.610;25.010;2023-07-28T03:02:06;100424.22;;;14.29;78.50
61682;BME280;47577;43.610;25.010;2023-07-28T03:04:32;100427.88;;;14.26;79.50
61682;BME280;47577;43.610;25.010;2023-07-28T03:06:57;100441.91;;;14.31;78.36
61682;BME280;47577;43.610;25.010;2023-07-28T03:09:23;100438.66;;;14.24;79.94
61682;BME280;47577;43.610;25.010;2023-07-28T03:11:49;100443.38;;;14.19;78.35
61682;BME280;47577;43.610;25.010;2023-07-28T03:14:14;100442.81;;;14.13;79.22
61682;BME280;47577;43.610;25.010;2023-07-28T03:16:41;100439.38;;;14.09;80.16
61682;BME280;47577;43.610;25.010;2023-07-28T03:19:07;100429.72;;;14.06;81.24
61682;BME280;47577;43.610;25.010;2023-07-28T03:21:33;100439.56;;;14.06;80.75
61682;BME280;47577;43.610;25.010;2023-07-28T03:23:58;100429.44;;;14.13;80.14
61682;BME280;47577;43.610;25.010;2023-07-28T03:26:25;100441.34;;;14.24;79.29
61682;BME280;47577;43.610;25.010;2023-07-28T03:28:50;100429.28;;;14.16;80.87
61682;BME280;47577;43.610;25.010;2023-07-28T03:31:16;100431.88;;;14.17;80.33
61682;BME280;47577;43.610;25.010;2023-07-28T03:33:42;100437.88;;;14.22;81.05
61682;BME280;47577;43.610;25.010;2023-07-28T03:36:07;100429.72;;;14.25;81.03
61682;BME280;47577;43.610;25.010;2023-07-28T03:38:33;100436.56;;;14.31;81.51
61682;BME280;47577;43.610;25.010;2023-07-28T03:40:59;100429.09;;;14.38;80.91
61682;BME280;47577;43.610;25.010;2023-07-28T03:43:25;100446.81;;;14.40;80.29
61682;BME280;47577;43.610;25.010;2023-07-28T03:45:50;100437.66;;;14.44;80.87
61682;BME280;47577;43.610;25.010;2023-07-28T03:48:16;100443.69;;;14.50;80.14
61682;BME280;47577;43.610;25.010;2023-07-28T03:50:42;100441.16;;;14.47;79.90
61682;BME280;47577;43.610;25.010;2023-07-28T03:53:07;100437.75;;;14.62;80.89
61682;BME280;47577;43.610;25.010;2023-07-28T03:55:33;100423.06;;;14.71;78.79
61682;BME280;47577;43.610;25.010;2023-07-28T03:57:59;100430.13;;;14.89;78.25
61682;BME280;47577;43.610;25.010;2023-07-28T04:00:24;100433.75;;;15.06;79.06
61682;BME280;47577;43.610;25.010;2023-07-28T04:02:50;100424.84;;;15.23;76.89
61682;BME280;47577;43.610;25.010;2023-07-28T04:05:15;100443.91;;;15.50;72.85
61682;BME280;47577;43.610;25.010;2023-07-28T04:07:41;100434.13;;;15.66;72.75
61682;BME280;47577;43.610;25.010;2023-07-28T04:10:07;100414.84;;;15.76;73.46
61682;BME280;47577;43.610;25.010;2023-07-28T04:12:33;100444.81;;;16.16;74.45
61682;BME280;47577;43.610;25.010;2023-07-28T04:14:58;100439.53;;;16.30;73.25
61682;BME280;47577;43.610;25.010;2023-07-28T04:17:24;100443.75;;;16.50;71.66
61682;BME280;47577;43.610;25.010;2023-07-28T04:19:50;100443.22;;;16.59;69.15
61682;BME280;47577;43.610;25.010;2023-07-28T04:22:15;100458.50;;;16.89;68.68
61682;BME280;47577;43.610;25.010;2023-07-28T04:24:47;100459.25;;;17.07;71.04
61682;BME280;47577;43.610;25.010;2023-07-28T04:27:13;100455.63;;;17.23;69.31
61682;BME280;47577;43.610;25.010;2023-07-28T04:29:40;100463.06;;;17.33;67.51
61682;BME280;47577;43.610;25.010;2023-07-28T04:32:06;100450.78;;;17.44;69.83
61682;BME280;47577;43.610;25.010;2023-07-28T04:34:35;100455.31;;;17.58;66.19
61682;BME280;47577;43.610;25.010;2023-07-28T04:37:00;100461.72;;;17.69;66.97
61682;BME280;47577;43.610;25.010;2023-07-28T04:39:26;100461.16;;;17.64;69.77
61682;BME280;47577;43.610;25.010;2023-07-28T04:41:52;100470.25;;;17.62;69.08
61682;BME280;47577;43.610;25.010;2023-07-28T04:44:18;100469.41;;;17.76;69.68
61682;BME280;47577;43.610;25.010;2023-07-28T04:46:45;100473.75;;;17.93;68.75
61682;BME280;47577;43.610;25.010;2023-07-28T04:49:13;100468.75;;;18.01;65.04
61682;BME280;47577;43.610;25.010;2023-07-28T04:51:39;100481.22;;;18.16;64.11
61682;BME280;47577;43.610;25.010;2023-07-28T04:54:04;100469.09;;;18.23;63.51
61682;BME280;47577;43.610;25.010;2023-07-28T04:56:30;100475.63;;;18.34;60.92
61682;BME280;47577;43.610;25.010;2023-07-28T04:58:55;100473.84;;;18.47;62.35
61682;BME280;47577;43.610;25.010;2023-07-28T05:01:21;100468.66;;;18.44;61.06
61682;BME280;47577;43.610;25.010;2023-07-28T05:03:47;100475.31;;;18.66;62.71
61682;BME280;47577;43.610;25.010;2023-07-28T05:06:13;100469.97;;;18.78;61.37
61682;BME280;47577;43.610;25.010;2023-07-28T05:08:38;100462.78;;;18.79;57.83
61682;BME280;47577;43.610;25.010;2023-07-28T05:11:04;100486.03;;;18.80;58.07
61682;BME280;47577;43.610;25.010;2023-07-28T05:13:29;100474.78;;;18.88;56.03
61682;BME280;47577;43.610;25.010;2023-07-28T05:15:55;100468.44;;;19.02;58.55
61682;BME280;47577;43.610;25.010;2023-07-28T05:18:20;100472.66;;;19.06;58.94
61682;BME280;47577;43.610;25.010;2023-07-28T05:20:46;100474.63;;;19.16;58.66
61682;BME280;47577;43.610;25.010;2023-07-28T05:23:12;100478.53;;;19.25;59.54
61682;BME280;47577;43.610;25.010;2023-07-28T05:25:37;100479.69;;;19.34;59.55
61682;BME280;47577;43.610;25.010;2023-07-28T05:28:03;100472.31;;;19.50;57.64
61682;BME280;47577;43.610;25.010;2023-07-28T05:30:29;100465.16;;;19.75;56.85
61682;BME280;47577;43.610;25.010;2023-07-28T05:32:54;100472.06;;;19.92;56.59
61682;BME280;47577;43.610;25.010;2023-07-28T05:35:20;100470.25;;;19.93;57.27
61682;BME280;47577;43.610;25.010;2023-07-28T05:37:46;100478.88;;;19.98;56.96
61682;BME280;47577;43.610;25.010;2023-07-28T05:40:12;100477.00;;;20.11;56.86
61682;BME280;47577;43.610;25.010;2023-07-28T05:42:38;100477.53;;;20.16;56.31
61682;BME280;47577;43.610;25.010;2023-07-28T05:45:04;100467.44;;;20.31;53.12
61682;BME280;47577;43.610;25.010;2023-07-28T05:47:29;100460.97;;;20.34;54.37
61682;BME280;47577;43.610;25.010;2023-07-28T05:49:55;100464.63;;;20.33;54.90
61682;BME280;47577;43.610;25.010;2023-07-28T05:52:21;100471.03;;;20.32;54.12
61682;BME280;47577;43.610;25.010;2023-07-28T05:54:47;100470.53;;;20.51;54.63
61682;BME280;47577;43.610;25.010;2023-07-28T05:57:13;100465.88;;;20.53;52.35
61682;BME280;47577;43.610;25.010;2023-07-28T05:59:39;100473.84;;;20.67;51.93
61682;BME280;47577;43.610;25.010;2023-07-28T06:02:05;100471.75;;;20.71;53.15
61682;BME280;47577;43.610;25.010;2023-07-28T06:04:31;100471.53;;;20.74;53.10
61682;BME280;47577;43.610;25.010;2023-07-28T06:06:56;100470.97;;;20.81;52.76
61682;BME280;47577;43.610;25.010;2023-07-28T06:09:22;100475.38;;;20.82;52.24
61682;BME280;47577;43.610;25.010;2023-07-28T06:11:48;100470.47;;;20.88;52.28
61682;BME280;47577;43.610;25.010;2023-07-28T06:14:13;100469.50;;;20.89;51.77
61682;BME280;47577;43.610;25.010;2023-07-28T06:16:39;100476.16;;;20.96;52.07
61682;BME280;47577;43.610;25.010;2023-07-28T06:19:05;100473.63;;;21.17;50.46
61682;BME280;47577;43.610;25.010;2023-07-28T06:21:30;100465.91;;;21.12;53.30
61682;BME280;47577;43.610;25.010;2023-07-28T06:23:56;100452.16;;;21.15;52.65
61682;BME280;47577;43.610;25.010;2023-07-28T06:26:23;100465.47;;;21.41;51.58
61682;BME280;47577;43.610;25.010;2023-07-28T06:28:48;100461.19;;;21.39;51.21
61682;BME280;47577;43.610;25.010;2023-07-28T06:31:14;100469.22;;;21.63;52.54
61682;BME280;47577;43.610;25.010;2023-07-28T06:33:39;100452.75;;;21.54;48.71
61682;BME280;47577;43.610;25.010;2023-07-28T06:36:05;100456.03;;;21.47;48.51
61682;BME280;47577;43.610;25.010;2023-07-28T06:38:31;100449.03;;;21.55;50.57
61682;BME280;47577;43.610;25.010;2023-07-28T06:40:57;100458.66;;;21.71;49.55
61682;BME280;47577;43.610;25.010;2023-07-28T06:43:23;100462.72;;;21.88;52.29
61682;BME280;47577;43.610;25.010;2023-07-28T06:45:53;100465.28;;;22.01;51.17
61682;BME280;47577;43.610;25.010;2023-07-28T06:48:19;100452.09;;;22.19;48.14
61682;BME280;47577;43.610;25.010;2023-07-28T06:50:45;100457.03;;;22.36;51.32
61682;BME280;47577;43.610;25.010;2023-07-28T06:53:10;100459.69;;;22.59;47.98
61682;BME280;47577;43.610;25.010;2023-07-28T06:55:36;100446.94;;;22.71;49.44
61682;BME280;47577;43.610;25.010;2023-07-28T06:58:07;100464.25;;;22.91;47.53
61682;BME280;47577;43.610;25.010;2023-07-28T07:00:33;100460.59;;;23.01;47.80
61682;BME280;47577;43.610;25.010;2023-07-28T07:02:59;100453.06;;;23.16;45.67
61682;BME280;47577;43.610;25.010;2023-07-28T07:05:26;100445.25;;;23.23;45.21
61682;BME280;47577;43.610;25.010;2023-07-28T07:07:51;100458.88;;;23.33;45.58
61682;BME280;47577;43.610;25.010;2023-07-28T07:10:18;100455.50;;;23.41;48.15
61682;BME280;47577;43.610;25.010;2023-07-28T07:12:47;100453.44;;;23.54;47.16
61682;BME280;47577;43.610;25.010;2023-07-28T07:15:12;100442.72;;;23.52;43.64
61682;BME280;47577;43.610;25.010;2023-07-28T07:17:38;100465.44;;;23.61;46.26
61682;BME280;47577;43.610;25.010;2023-07-28T07:20:05;100461.25;;;23.78;44.21
61682;BME280;47577;43.610;25.010;2023-07-28T07:22:31;100458.69;;;23.77;43.56
61682;BME280;47577;43.610;25.010;2023-07-28T07:24:57;100466.94;;;23.96;41.90
61682;BME280;47577;43.610;25.010;2023-07-28T07:27:25;100455.06;;;23.97;42.82
61682;BME280;47577;43.610;25.010;2023-07-28T07:29:52;100452.53;;;24.05;43.28
61682;BME280;47577;43.610;25.010;2023-07-28T07:32:17;100447.44;;;24.22;41.93
61682;BME280;47577;43.610;25.010;2023-07-28T07:34:43;100455.00;;;24.28;38.92
61682;BME280;47577;43.610;25.010;2023-07-28T07:37:09;100459.91;;;24.34;39.58
61682;BME280;47577;43.610;25.010;2023-07-28T07:39:35;100457.19;;;24.34;39.93
61682;BME280;47577;43.610;25.010;2023-07-28T07:42:01;100471.38;;;24.07;38.13
61682;BME280;47577;43.610;25.010;2023-07-28T07:44:27;100451.28;;;24.19;38.78
61682;BME280;47577;43.610;25.010;2023-07-28T07:46:53;100447.59;;;24.30;42.32
61682;BME280;47577;43.610;25.010;2023-07-28T07:49:19;100455.78;;;24.50;39.11
61682;BME280;47577;43.610;25.010;2023-07-28T07:51:44;100455.97;;;24.58;38.05
61682;BME280;47577;43.610;25.010;2023-07-28T07:54:10;100461.28;;;24.69;36.68
61682;BME280;47577;43.610;25.010;2023-07-28T07:56:40;100458.41;;;24.80;38.94
61682;BME280;47577;43.610;25.010;2023-07-28T07:59:06;100452.28;;;24.98;39.01
61682;BME280;47577;43.610;25.010;2023-07-28T08:01:31;100450.53;;;25.16;38.78
61682;BME280;47577;43.610;25.010;2023-07-28T08:03:57;100457.56;;;25.29;36.07
61682;BME280;47577;43.610;25.010;2023-07-28T08:06:23;100457.72;;;24.98;35.10
61682;BME280;47577;43.610;25.010;2023-07-28T08:08:48;100469.00;;;24.93;35.29
61682;BME280;47577;43.610;25.010;2023-07-28T08:11:16;100458.28;;;24.82;35.16
61682;BME280;47577;43.610;25.010;2023-07-28T08:13:41;100448.25;;;24.82;36.21
61682;BME280;47577;43.610;25.010;2023-07-28T08:16:08;100451.41;;;24.88;35.78
61682;BME280;47577;43.610;25.010;2023-07-28T08:18:34;100444.13;;;24.98;35.79
61682;BME280;47577;43.610;25.010;2023-07-28T08:20:59;100449.41;;;25.09;35.96
61682;BME280;47577;43.610;25.010;2023-07-28T08:23:26;100461.38;;;25.26;36.77
61682;BME280;47577;43.610;25.010;2023-07-28T08:25:51;100465.28;;;25.43;35.35
61682;BME280;47577;43.610;25.010;2023-07-28T08:28:17;100454.47;;;25.61;36.20
61682;BME280;47577;43.610;25.010;2023-07-28T08:30:42;100455.00;;;25.75;33.57
61682;BME280;47577;43.610;25.010;2023-07-28T08:33:08;100459.03;;;25.61;34.44
61682;BME280;47577;43.610;25.010;2023-07-28T08:35:34;100447.63;;;25.85;36.16
61682;BME280;47577;43.610;25.010;2023-07-28T08:37:59;100461.44;;;26.11;35.31
61682;BME280;47577;43.610;25.010;2023-07-28T08:40:26;100464.47;;;26.36;33.38
61682;BME280;47577;43.610;25.010;2023-07-28T08:42:53;100457.84;;;26.38;33.61
61682;BME280;47577;43.610;25.010;2023-07-28T08:45:19;100453.84;;;26.60;33.67
61682;BME280;47577;43.610;25.010;2023-07-28T08:47:45;100449.34;;;26.69;32.68
61682;BME280;47577;43.610;25.010;2023-07-28T08:50:11;100443.81;;;26.79;35.13
61682;BME280;47577;43.610;25.010;2023-07-28T08:52:36;100442.34;;;26.67;34.08
61682;BME280;47577;43.610;25.010;2023-07-28T08:55:02;100436.66;;;26.78;34.71
61682;BME280;47577;43.610;25.010;2023-07-28T08:57:28;100439.38;;;26.96;33.66
61682;BME280;47577;43.610;25.010;2023-07-28T08:59:54;100438.50;;;27.13;33.40
61682;BME280;47577;43.610;25.010;2023-07-28T09:02:20;100441.47;;;27.02;32.80
61682;BME280;47577;43.610;25.010;2023-07-28T09:04:47;100433.31;;;26.84;34.07
61682;BME280;47577;43.610;25.010;2023-07-28T09:07:13;100426.91;;;26.75;32.78
61682;BME280;47577;43.610;25.010;2023-07-28T09:09:40;100419.47;;;26.50;33.30
61682;BME280;47577;43.610;25.010;2023-07-28T09:12:07;100423.91;;;26.33;32.94
61682;BME280;47577;43.610;25.010;2023-07-28T09:14:35;100425.09;;;26.66;32.32
61682;BME280;47577;43.610;25.010;2023-07-28T09:17:09;100434.13;;;25.93;33.48
61682;BME280;47577;43.610;25.010;2023-07-28T09:19:52;100432.63;;;26.36;33.03
61682;BME280;47577;43.610;25.010;2023-07-28T09:22:18;100430.59;;;26.56;33.24
61682;BME280;47577;43.610;25.010;2023-07-28T09:24:46;100417.72;;;26.76;33.61
61682;BME280;47577;43.610;25.010;2023-07-28T09:27:25;100416.44;;;27.07;33.69
61682;BME280;47577;43.610;25.010;2023-07-28T09:29:52;100406.47;;;27.42;33.76
61682;BME280;47577;43.610;25.010;2023-07-28T09:32:29;100423.66;;;27.60;32.54
61682;BME280;47577;43.610;25.010;2023-07-28T09:35:12;100421.31;;;27.73;30.61
61682;BME280;47577;43.610;25.010;2023-07-28T09:37:39;100410.91;;;27.77;30.84
61682;BME280;47577;43.610;25.010;2023-07-28T09:40:08;100402.69;;;27.69;34.00
61682;BME280;47577;43.610;25.010;2023-07-28T09:42:41;100404.56;;;27.16;31.33
61682;BME280;47577;43.610;25.010;2023-07-28T09:45:08;100409.59;;;27.29;32.13
61682;BME280;47577;43.610;25.010;2023-07-28T09:47:35;100407.59;;;27.57;33.02
61682;BME280;47577;43.610;25.010;2023-07-28T09:50:07;100407.72;;;27.90;31.98
61682;BME280;47577;43.610;25.010;2023-07-28T09:52:38;100394.84;;;28.08;31.46
61682;BME280;47577;43.610;25.010;2023-07-28T09:55:07;100393.56;;;28.37;31.42
61682;BME280;47577;43.610;25.010;2023-07-28T09:57:39;100392.72;;;28.45;28.78
61682;BME280;47577;43.610;25.010;2023-07-28T10:00:08;100382.16;;;28.58;32.19
61682;BME280;47577;43.610;25.010;2023-07-28T10:03:02;100386.44;;;28.77;30.21
61682;BME280;47577;43.610;25.010;2023-07-28T10:06:24;100388.00;;;28.88;28.74
61682;BME280;47577;43.610;25.010;2023-07-28T10:09:34;100381.81;;;28.94;28.77
61682;BME280;47577;43.610;25.010;2023-07-28T10:15:38;100367.16;;;27.95;29.15
61682;BME280;47577;43.610;25.010;2023-07-28T10:18:32;100355.38;;;27.95;33.08
61682;BME280;47577;43.610;25.010;2023-07-28T10:28:37;100346.25;;;28.86;30.66
61682;BME280;47577;43.610;25.010;2023-07-28T10:59:35;100297.53;;;28.49;28.45
61682;BME280;47577;43.610;25.010;2023-07-28T11:02:58;100312.25;;;28.80;28.43
61682;BME280;47577;43.610;25.010;2023-07-28T11:17:05;100297.38;;;29.47;24.43
61682;BME280;47577;43.610;25.010;2023-07-28T11:27:17;100288.00;;;29.81;24.67
61682;BME280;47577;43.610;25.010;2023-07-28T11:33:23;100284.13;;;29.99;27.09
61682;BME280;47577;43.610;25.010;2023-07-28T11:42:57;100281.78;;;30.34;24.55
61682;BME280;47577;43.610;25.010;2023-07-28T11:45:34;100276.78;;;30.46;24.77
61682;BME280;47577;43.610;25.010;2023-07-28T11:48:18;100271.03;;;30.55;24.49
61682;BME280;47577;43.610;25.010;2023-07-28T11:51:05;100276.44;;;30.63;24.10
61682;BME280;47577;43.610;25.010;2023-07-28T11:53:40;100259.81;;;30.42;23.53
61682;BME280;47577;43.610;25.010;2023-07-28T11:56:31;100270.84;;;30.11;23.48
61682;BME280;47577;43.610;25.010;2023-07-28T11:59:12;100266.28;;;30.26;24.05
61682;BME280;47577;43.610;25.010;2023-07-28T12:01:58;100269.44;;;30.76;24.95
61682;BME280;47577;43.610;25.010;2023-07-28T12:04:37;100252.59;;;30.79;25.30
61682;BME280;47577;43.610;25.010;2023-07-28T12:07:39;100249.59;;;30.74;23.09
61682;BME280;47577;43.610;25.010;2023-07-28T12:10:16;100246.41;;;31.00;22.42
61682;BME280;47577;43.610;25.010;2023-07-28T12:13:20;100236.84;;;31.11;23.88
61682;BME280;47577;43.610;25.010;2023-07-28T12:16:47;100240.66;;;31.25;24.90
61682;BME280;47577;43.610;25.010;2023-07-28T12:19:24;100232.56;;;31.38;24.36
61682;BME280;47577;43.610;25.010;2023-07-28T12:22:07;100232.75;;;31.37;22.83
61682;BME280;47577;43.610;25.010;2023-07-28T12:24:43;100230.16;;;31.13;22.63
61682;BME280;47577;43.610;25.010;2023-07-28T12:27:25;100226.03;;;31.24;23.19
61682;BME280;47577;43.610;25.010;2023-07-28T12:29:57;100218.47;;;30.67;23.00
61682;BME280;47577;43.610;25.010;2023-07-28T12:32:28;100224.25;;;31.02;23.35
61682;BME280;47577;43.610;25.010;2023-07-28T12:35:19;100225.25;;;31.45;22.85
61682;BME280;47577;43.610;25.010;2023-07-28T12:38:10;100226.72;;;31.26;22.63
61682;BME280;47577;43.610;25.010;2023-07-28T12:40:44;100223.88;;;31.34;23.85
61682;BME280;47577;43.610;25.010;2023-07-28T12:43:15;100221.66;;;31.45;22.47
61682;BME280;47577;43.610;25.010;2023-07-28T12:45:48;100220.41;;;31.62;22.90
61682;BME280;47577;43.610;25.010;2023-07-28T12:48:26;100216.38;;;31.80;25.60
61682;BME280;47577;43.610;25.010;2023-07-28T12:51:01;100206.31;;;31.87;23.44
61682;BME280;47577;43.610;25.010;2023-07-28T12:53:34;100207.88;;;31.96;22.59
61682;BME280;47577;43.610;25.010;2023-07-28T12:56:08;100200.44;;;32.12;21.33
61682;BME280;47577;43.610;25.010;2023-07-28T12:58:35;100190.91;;;31.71;21.42
61682;BME280;47577;43.610;25.010;2023-07-28T13:01:05;100194.59;;;31.78;22.08
61682;BME280;47577;43.610;25.010;2023-07-28T13:03:51;100183.94;;;32.12;21.36
61682;BME280;47577;43.610;25.010;2023-07-28T13:06:48;100190.75;;;32.44;20.17
61682;BME280;47577;43.610;25.010;2023-07-28T13:09:32;100192.00;;;31.55;20.49
61682;BME280;47577;43.610;25.010;2023-07-28T13:12:09;100191.03;;;31.84;20.78
61682;BME280;47577;43.610;25.010;2023-07-28T13:14:38;100174.22;;;31.94;23.37
61682;BME280;47577;43.610;25.010;2023-07-28T13:17:11;100181.09;;;32.05;20.37
61682;BME280;47577;43.610;25.010;2023-07-28T13:19:45;100174.19;;;32.09;21.24
61682;BME280;47577;43.610;25.010;2023-07-28T13:22:14;100175.56;;;31.77;21.15
61682;BME280;47577;43.610;25.010;2023-07-28T13:24:43;100181.28;;;31.60;21.52
61682;BME280;47577;43.610;25.010;2023-07-28T13:27:10;100176.91;;;31.14;21.21
61682;BME280;47577;43.610;25.010;2023-07-28T13:29:38;100174.06;;;31.23;21.20
61682;BME280;47577;43.610;25.010;2023-07-28T13:32:18;100167.56;;;30.94;22.32
61682;BME280;47577;43.610;25.010;2023-07-28T13:34:49;100162.19;;;31.01;21.88
61682;BME280;47577;43.610;25.010;2023-07-28T13:37:18;100172.59;;;31.42;21.92
61682;BME280;47577;43.610;25.010;2023-07-28T13:39:53;100167.94;;;31.42;21.89
61682;BME280;47577;43.610;25.010;2023-07-28T13:42:22;100163.97;;;30.78;20.78
61682;BME280;47577;43.610;25.010;2023-07-28T13:44:47;100157.13;;;31.19;23.21
61682;BME280;47577;43.610;25.010;2023-07-28T13:47:13;100164.75;;;31.39;22.28
61682;BME280;47577;43.610;25.010;2023-07-28T13:49:38;100157.34;;;31.97;23.70
61682;BME280;47577;43.610;25.010;2023-07-28T13:52:06;100155.59;;;31.68;25.36
61682;BME280;47577;43.610;25.010;2023-07-28T13:54:31;100154.13;;;31.94;20.78
61682;BME280;47577;43.610;25.010;2023-07-28T13:56:57;100155.53;;;32.61;21.58
61682;BME280;47577;43.610;25.010;2023-07-28T13:59:23;100147.03;;;32.91;22.73